Time;durP1;ratioP1;P1;durP2;ratioP2;P2;SDS_P1;SDS_P2;PMS_P1;PMS_P2;Temp;Humidity;BMP_temperature;BMP_pressure;BME280_temperature;BME280_humidity;BME280_pressure;Samples;Min_cycle;Max_cycle;Signal;HPM_P1;HPM_P2
2023/08/19 00:01:32;;;;;;;42.33;34.00;;;20.20;99.90;;;;;;5047993;28;20055;-64
2023/08/19 00:03:59;;;;;;;31.25;24.83;;;20.10;99.90;;;;;;5048819;28;20504;-64
2023/08/19 00:06:39;;;;;;;30.40;24.63;;;20.10;99.90;;;;;;5043446;28;20051;-65
2023/08/19 00:09:08;;;;;;;28.17;23.55;;;20.10;99.90;;;;;;5046135;28;20045;-65
2023/08/19 00:11:35;;;;;;;22.85;19.40;;;20.00;99.90;;;;;;5044284;28;20124;-64
2023/08/19 00:14:02;;;;;;;24.65;19.88;;;19.90;99.90;;;;;;5054014;28;20041;-65
2023/08/19 00:16:28;;;;;;;43.60;20.05;;;19.80;99.90;;;;;;5064311;28;20386;-65
2023/08/19 00:18:54;;;;;;;17.92;15.73;;;19.80;99.90;;;;;;5062213;28;20041;-64
2023/08/19 00:21:20;;;;;;;67.53;19.90;;;19.70;99.90;;;;;;5064082;28;20048;-63
2023/08/19 00:23:46;;;;;;;116.88;32.05;;;19.60;99.90;;;;;;5065774;28;20044;-64
2023/08/19 00:26:12;;;;;;;46.65;33.08;;;19.50;99.90;;;;;;5062493;28;20048;-66
2023/08/19 00:28:38;;;;;;;59.95;37.55;;;19.40;99.90;;;;;;5098077;28;20045;-66
2023/08/19 00:31:04;;;;;;;32.05;26.48;;;19.40;99.90;;;;;;5062044;28;20504;-64
2023/08/19 00:33:30;;;;;;;28.48;25.00;;;19.40;99.90;;;;;;5059421;28;20107;-64
2023/08/19 00:35:55;;;;;;;26.50;23.23;;;19.40;99.90;;;;;;5043829;28;20488;-64
2023/08/19 00:38:21;;;;;;;26.80;23.80;;;19.40;99.90;;;;;;5045819;28;20376;-63
2023/08/19 00:40:46;;;;;;;27.77;24.10;;;19.40;99.90;;;;;;5054294;28;20123;-64
2023/08/19 00:43:12;;;;;;;27.85;23.50;;;19.40;99.90;;;;;;5065453;28;20044;-65
2023/08/19 00:45:40;;;;;;;31.88;27.45;;;19.30;99.90;;;;;;5065442;28;20033;-63
2023/08/19 00:48:06;;;;;;;37.90;29.85;;;19.40;99.90;;;;;;5053096;28;20167;-64
2023/08/19 00:50:32;;;;;;;42.08;31.17;;;19.40;99.90;;;;;;5097121;28;20115;-64
2023/08/19 00:52:58;;;;;;;35.67;28.10;;;19.40;99.90;;;;;;5063881;28;20071;-64
2023/08/19 00:55:23;;;;;;;33.35;27.67;;;19.50;99.90;;;;;;5062156;28;20045;-64
2023/08/19 00:57:50;;;;;;;34.63;28.63;;;19.50;99.90;;;;;;5063670;28;20032;-64
2023/08/19 01:00:16;;;;;;;41.28;30.70;;;19.50;99.90;;;;;;5063888;28;20514;-64
2023/08/19 01:02:42;;;;;;;41.20;31.63;;;19.50;99.90;;;;;;5044699;28;20056;-64
2023/08/19 01:05:08;;;;;;;42.63;30.77;;;19.50;99.90;;;;;;5044815;28;20572;-64
2023/08/19 01:07:55;;;;;;;39.92;29.27;;;19.60;99.90;;;;;;5065011;28;20508;-64
2023/08/19 01:10:29;;;;;;;37.33;28.98;;;19.60;99.90;;;;;;5025285;28;20052;-64
2023/08/19 01:13:21;;;;;;;41.17;29.75;;;19.60;99.90;;;;;;5048714;28;20676;-64
2023/08/19 01:16:05;;;;;;;35.88;28.63;;;19.60;99.90;;;;;;5090608;28;20091;-65
2023/08/19 01:18:32;;;;;;;38.55;30.73;;;19.60;99.90;;;;;;5050336;28;20080;-64
2023/08/19 01:20:58;;;;;;;40.55;30.92;;;19.60;99.90;;;;;;5051519;28;20087;-64
2023/08/19 01:23:29;;;;;;;40.97;31.63;;;19.60;99.90;;;;;;5051355;28;20069;-67
2023/08/19 01:25:56;;;;;;;40.92;31.88;;;19.60;99.90;;;;;;5050564;28;20048;-64
2023/08/19 01:28:22;;;;;;;40.00;30.27;;;19.60;99.90;;;;;;5033718;28;20377;-65
2023/08/19 01:30:47;;;;;;;39.42;30.50;;;19.70;99.90;;;;;;5031873;28;20041;-64
2023/08/19 01:33:13;;;;;;;36.47;29.80;;;19.70;99.90;;;;;;5038513;28;20143;-65
2023/08/19 01:35:46;;;;;;;37.20;29.42;;;19.70;99.90;;;;;;5050297;28;20147;-64
2023/08/19 01:38:22;;;;;;;38.97;30.27;;;19.70;99.90;;;;;;5052458;28;20439;-64
2023/08/19 01:40:48;;;;;;;41.80;31.60;;;19.70;99.90;;;;;;5069883;28;20041;-65
2023/08/19 01:43:14;;;;;;;43.17;31.15;;;19.70;99.90;;;;;;5070234;28;20075;-65
2023/08/19 01:45:40;;;;;;;40.65;31.88;;;19.70;99.90;;;;;;5057321;28;20048;-65
2023/08/19 01:48:06;;;;;;;43.22;32.97;;;19.70;99.90;;;;;;5049822;28;20045;-65
2023/08/19 01:50:32;;;;;;;41.60;30.60;;;19.70;99.90;;;;;;5069600;28;20068;-64
2023/08/19 01:52:57;;;;;;;41.63;32.13;;;19.70;99.90;;;;;;5070114;28;20297;-65
2023/08/19 01:55:23;;;;;;;46.63;31.92;;;19.70;99.90;;;;;;5067740;28;20045;-65
2023/08/19 01:57:48;;;;;;;41.38;30.40;;;19.60;99.90;;;;;;5049888;28;20041;-66
2023/08/19 02:00:14;;;;;;;38.92;30.35;;;19.60;99.90;;;;;;5060700;28;20575;-65
2023/08/19 02:02:40;;;;;;;33.70;28.27;;;19.60;99.90;;;;;;5071197;28;20415;-64
2023/08/19 02:05:05;;;;;;;49.03;34.15;;;19.60;99.90;;;;;;5050814;28;20430;-64
2023/08/19 02:07:31;;;;;;;44.08;32.90;;;19.60;99.90;;;;;;5048810;28;20473;-65
2023/08/19 02:09:57;;;;;;;51.75;34.85;;;19.50;99.90;;;;;;5049794;28;20055;-63
2023/08/19 02:12:22;;;;;;;51.22;35.95;;;19.40;99.90;;;;;;5050006;28;20092;-64
2023/08/19 02:14:48;;;;;;;42.38;31.00;;;19.30;99.90;;;;;;5049748;28;20177;-64
2023/08/19 02:17:14;;;;;;;51.08;36.42;;;19.30;99.90;;;;;;5051061;28;20037;-65
2023/08/19 02:19:39;;;;;;;51.75;36.08;;;19.30;99.90;;;;;;5061029;28;20059;-68
2023/08/19 02:22:05;;;;;;;50.80;36.05;;;19.30;99.90;;;;;;5071318;28;20036;-64
2023/08/19 02:24:30;;;;;;;53.10;36.85;;;19.30;99.90;;;;;;5069887;28;20036;-64
2023/08/19 02:26:56;;;;;;;45.78;35.42;;;19.30;99.90;;;;;;5070816;28;20166;-64
2023/08/19 02:29:21;;;;;;;47.78;36.33;;;19.20;99.90;;;;;;5065302;28;20045;-64
2023/08/19 02:31:47;;;;;;;49.67;36.25;;;19.30;99.90;;;;;;5056448;28;20041;-64
2023/08/19 02:34:13;;;;;;;51.70;37.72;;;19.30;99.90;;;;;;5055273;28;20048;-64
2023/08/19 02:36:38;;;;;;;47.75;36.72;;;19.30;99.90;;;;;;5066147;28;20045;-64
2023/08/19 02:39:04;;;;;;;53.67;35.88;;;19.30;99.90;;;;;;5066359;28;20541;-64
2023/08/19 02:41:30;;;;;;;59.40;38.80;;;19.30;99.90;;;;;;5066247;28;20046;-64
2023/08/19 02:43:55;;;;;;;54.28;37.75;;;19.20;99.90;;;;;;5066429;28;20036;-65
2023/08/19 02:46:21;;;;;;;56.03;39.08;;;19.20;99.90;;;;;;5066229;28;20401;-63
2023/08/19 02:48:47;;;;;;;46.53;35.22;;;19.20;99.90;;;;;;5044260;28;20166;-64
2023/08/19 02:51:12;;;;;;;51.55;37.72;;;19.20;99.90;;;;;;5066238;28;20514;-65
2023/08/19 02:53:38;;;;;;;50.75;37.08;;;19.20;99.90;;;;;;5065782;28;20535;-64
2023/08/19 02:56:06;;;;;;;50.95;37.47;;;19.20;99.90;;;;;;5065922;28;20084;-64
2023/08/19 02:58:32;;;;;;;45.05;35.47;;;19.10;99.90;;;;;;5066325;28;20495;-64
2023/08/19 03:00:58;;;;;;;49.25;36.03;;;19.20;99.90;;;;;;5066168;28;20033;-65
2023/08/19 03:03:23;;;;;;;47.88;34.92;;;19.20;99.90;;;;;;5046900;28;20111;-65
2023/08/19 03:05:49;;;;;;;44.60;35.30;;;19.20;99.90;;;;;;5065983;28;20051;-65
2023/08/19 03:08:15;;;;;;;49.55;35.67;;;19.20;99.90;;;;;;5055304;28;20117;-64
2023/08/19 03:10:41;;;;;;;48.40;37.13;;;19.20;99.90;;;;;;5029229;28;20550;-65
2023/08/19 03:13:07;;;;;;;45.45;36.00;;;19.20;99.90;;;;;;5045401;28;20037;-66
2023/08/19 03:15:35;;;;;;;47.15;35.45;;;19.30;99.90;;;;;;5058041;28;20044;-64
2023/08/19 03:18:01;;;;;;;47.90;35.35;;;19.30;99.90;;;;;;5066874;28;20040;-67
2023/08/19 03:20:27;;;;;;;46.75;34.40;;;19.30;99.90;;;;;;5063768;28;20043;-66
2023/08/19 03:22:52;;;;;;;41.70;32.38;;;19.30;99.90;;;;;;5066914;28;20458;-64
2023/08/19 03:25:18;;;;;;;42.65;34.28;;;19.30;99.90;;;;;;5065712;28;20037;-64
2023/08/19 03:27:44;;;;;;;42.55;33.33;;;19.30;99.90;;;;;;5051338;28;20098;-64
2023/08/19 03:30:09;;;;;;;41.58;32.80;;;19.30;99.90;;;;;;5045757;28;20110;-65
2023/08/19 03:32:35;;;;;;;39.55;32.00;;;19.30;99.90;;;;;;5045593;28;20057;-64
2023/08/19 03:35:01;;;;;;;44.42;32.90;;;19.30;99.90;;;;;;5059682;28;20051;-63
2023/08/19 03:37:26;;;;;;;44.38;33.63;;;19.30;99.90;;;;;;5057435;28;20067;-66
2023/08/19 03:39:52;;;;;;;42.40;32.15;;;19.20;99.90;;;;;;5045212;28;20408;-64
2023/08/19 03:42:18;;;;;;;44.60;33.05;;;19.20;99.90;;;;;;5057235;28;20562;-65
2023/08/19 03:44:44;;;;;;;45.88;34.15;;;19.20;99.90;;;;;;5065105;28;20403;-64
2023/08/19 03:47:13;;;;;;;38.70;32.97;;;19.20;99.90;;;;;;5063695;28;20044;-65
2023/08/19 03:49:39;;;;;;;41.25;31.50;;;19.20;99.90;;;;;;5053349;28;20450;-64
2023/08/19 03:52:08;;;;;;;39.53;32.03;;;19.30;99.90;;;;;;5064796;28;20044;-65
2023/08/19 03:54:35;;;;;;;42.78;32.03;;;19.20;99.90;;;;;;5064871;28;20466;-66
2023/08/19 03:57:01;;;;;;;40.80;31.65;;;19.20;99.90;;;;;;5066117;28;20427;-66
2023/08/19 03:59:27;;;;;;;39.38;31.85;;;19.20;99.90;;;;;;5065116;28;20043;-66
2023/08/19 04:01:53;;;;;;;43.38;31.60;;;19.20;99.90;;;;;;5045842;28;20113;-66
2023/08/19 04:04:19;;;;;;;41.33;31.58;;;19.20;99.90;;;;;;5055973;28;20048;-64
2023/08/19 04:06:44;;;;;;;41.42;31.40;;;19.20;99.90;;;;;;5046075;28;20076;-65
2023/08/19 04:09:10;;;;;;;45.47;32.75;;;19.20;99.90;;;;;;5061812;28;20485;-65
2023/08/19 04:11:37;;;;;;;40.65;31.80;;;19.20;99.90;;;;;;5065856;28;20174;-66
2023/08/19 04:14:05;;;;;;;43.65;31.60;;;19.20;99.90;;;;;;5060435;28;20040;-65
2023/08/19 04:16:31;;;;;;;42.35;31.00;;;19.20;99.90;;;;;;5045945;28;20515;-65
2023/08/19 04:18:57;;;;;;;40.35;31.02;;;19.20;99.90;;;;;;5049518;28;20047;-64
2023/08/19 04:21:23;;;;;;;40.30;30.50;;;19.20;99.90;;;;;;5065748;28;20040;-64
2023/08/19 04:23:49;;;;;;;39.90;30.60;;;19.20;99.90;;;;;;5049811;28;20114;-65
2023/08/19 04:26:15;;;;;;;37.67;30.38;;;19.20;99.90;;;;;;5043992;28;20644;-66
2023/08/19 04:28:40;;;;;;;42.22;30.35;;;19.20;99.90;;;;;;5046070;28;20072;-66
2023/08/19 04:31:08;;;;;;;37.38;29.67;;;19.20;99.90;;;;;;5041610;28;20037;-66
2023/08/19 04:33:35;;;;;;;35.53;30.85;;;19.30;99.90;;;;;;5027329;28;20044;-65
2023/08/19 04:36:01;;;;;;;38.53;30.05;;;19.20;99.90;;;;;;5043816;28;20052;-65
2023/08/19 04:38:27;;;;;;;37.38;30.40;;;19.30;99.90;;;;;;5055431;28;20052;-65
2023/08/19 04:40:53;;;;;;;33.05;28.55;;;19.30;99.90;;;;;;5065154;28;20036;-66
2023/08/19 04:43:19;;;;;;;36.78;29.13;;;19.40;99.90;;;;;;5045150;28;20151;-65
2023/08/19 04:45:44;;;;;;;34.13;27.40;;;19.40;99.90;;;;;;5044540;28;20415;-66
2023/08/19 04:48:10;;;;;;;35.65;28.13;;;19.50;99.90;;;;;;5046283;28;20372;-68
2023/08/19 04:50:36;;;;;;;32.35;26.55;;;19.50;99.90;;;;;;5045236;28;20040;-66
2023/08/19 04:53:02;;;;;;;34.22;27.30;;;19.60;99.90;;;;;;5051337;28;20032;-66
2023/08/19 04:55:28;;;;;;;32.25;26.30;;;19.60;99.90;;;;;;5063839;28;20045;-66
2023/08/19 04:57:53;;;;;;;32.67;27.88;;;19.70;99.90;;;;;;5051679;28;20157;-69
2023/08/19 05:00:19;;;;;;;33.42;26.65;;;19.80;99.90;;;;;;5027226;28;20040;-66
2023/08/19 05:02:45;;;;;;;31.20;25.77;;;19.80;99.90;;;;;;5056293;28;20444;-67
2023/08/19 05:05:11;;;;;;;70.90;26.60;;;19.90;99.90;;;;;;5047029;28;20049;-66
2023/08/19 05:07:36;;;;;;;30.13;24.45;;;20.00;99.90;;;;;;5049261;28;20033;-66
2023/08/19 05:10:03;;;;;;;28.35;24.02;;;20.10;99.90;;;;;;5063528;28;20051;-67
2023/08/19 05:12:29;;;;;;;28.10;23.27;;;20.20;99.90;;;;;;5044974;28;20488;-66
2023/08/19 05:14:55;;;;;;;28.70;23.65;;;20.40;99.90;;;;;;5043950;28;20049;-67
2023/08/19 05:17:21;;;;;;;26.20;22.55;;;20.50;99.90;;;;;;5045563;28;20045;-65
2023/08/19 05:19:46;;;;;;;25.52;22.67;;;20.60;99.90;;;;;;5055810;28;20044;-67
2023/08/19 05:22:12;;;;;;;26.27;22.25;;;20.80;99.90;;;;;;5044190;28;20087;-66
2023/08/19 05:24:37;;;;;;;30.73;22.23;;;20.80;99.90;;;;;;5043557;28;20268;-67
2023/08/19 05:27:03;;;;;;;25.38;21.83;;;20.80;99.90;;;;;;5043356;28;20037;-68
2023/08/19 05:29:29;;;;;;;26.58;21.90;;;20.80;99.90;;;;;;5043523;28;20049;-66
2023/08/19 05:31:55;;;;;;;25.88;20.75;;;20.80;99.90;;;;;;5043208;28;20036;-67
2023/08/19 05:34:21;;;;;;;24.40;21.40;;;20.80;99.90;;;;;;5063266;28;20051;-67
2023/08/19 05:36:47;;;;;;;26.63;20.52;;;20.80;99.90;;;;;;5046526;28;20041;-67
2023/08/19 05:39:13;;;;;;;27.73;20.83;;;20.80;99.90;;;;;;5044040;28;20430;-68
2023/08/19 05:41:38;;;;;;;23.30;20.67;;;20.80;99.90;;;;;;5026955;28;20037;-66
2023/08/19 05:44:05;;;;;;;26.05;21.65;;;20.80;99.90;;;;;;5053921;28;20367;-66
2023/08/19 05:46:30;;;;;;;27.35;21.85;;;20.80;99.90;;;;;;5046990;28;20487;-66
2023/08/19 05:48:56;;;;;;;25.83;19.55;;;20.70;99.90;;;;;;5061860;28;20040;-66
2023/08/19 05:51:22;;;;;;;23.42;20.63;;;20.70;99.90;;;;;;5063198;28;20040;-67
2023/08/19 05:53:47;;;;;;;25.38;19.30;;;20.70;99.90;;;;;;5061207;28;20388;-66
2023/08/19 05:56:13;;;;;;;24.15;20.50;;;20.70;99.90;;;;;;5062916;28;20077;-67
2023/08/19 05:58:39;;;;;;;23.85;19.67;;;20.60;99.90;;;;;;5063506;28;20045;-67
2023/08/19 06:01:07;;;;;;;25.58;21.00;;;20.60;99.90;;;;;;5061925;28;20488;-67
2023/08/19 06:03:33;;;;;;;25.33;20.75;;;20.60;99.90;;;;;;5060249;28;20535;-66
2023/08/19 06:06:05;;;;;;;24.17;20.40;;;20.60;99.90;;;;;;5048071;28;20486;-67
2023/08/19 06:08:30;;;;;;;27.73;21.13;;;20.60;99.90;;;;;;5060144;28;20123;-67
2023/08/19 06:11:06;;;;;;;29.35;20.67;;;20.60;99.90;;;;;;5068042;28;20127;-68
2023/08/19 06:13:36;;;;;;;26.95;20.30;;;20.60;99.90;;;;;;5050185;28;20056;-68
2023/08/19 06:16:03;;;;;;;26.15;20.85;;;20.70;99.90;;;;;;5053142;28;20044;-65
2023/08/19 06:18:29;;;;;;;28.85;20.65;;;20.70;99.90;;;;;;5046909;28;20461;-66
2023/08/19 06:20:56;;;;;;;27.10;19.90;;;20.80;99.90;;;;;;5046652;28;20419;-66
2023/08/19 06:23:22;;;;;;;27.23;19.45;;;20.80;99.90;;;;;;5057034;28;20044;-66
2023/08/19 06:25:50;;;;;;;24.88;18.65;;;20.90;99.90;;;;;;5068066;28;20530;-65
2023/08/19 06:28:16;;;;;;;22.63;17.67;;;20.90;99.90;;;;;;5066777;28;20395;-65
2023/08/19 06:30:43;;;;;;;22.42;18.00;;;21.00;99.90;;;;;;5064864;28;20051;-66
2023/08/19 06:33:10;;;;;;;20.15;16.40;;;21.10;99.90;;;;;;5052209;28;20971;-66
2023/08/19 06:35:36;;;;;;;23.05;16.30;;;21.10;99.90;;;;;;5046371;28;20468;-68
2023/08/19 06:38:28;;;;;;;20.65;16.15;;;21.20;99.90;;;;;;5053434;28;20119;-66
2023/08/19 06:41:02;;;;;;;19.73;14.70;;;21.30;99.90;;;;;;5066305;28;20090;-67
2023/08/19 06:43:30;;;;;;;17.83;14.48;;;21.30;99.90;;;;;;5010186;28;20172;-67
2023/08/19 06:45:57;;;;;;;19.38;14.73;;;21.40;99.90;;;;;;5030024;28;20065;-66
2023/08/19 06:48:23;;;;;;;22.98;14.85;;;21.40;99.90;;;;;;5047753;28;20202;-67
2023/08/19 06:50:51;;;;;;;19.67;15.05;;;21.50;99.90;;;;;;5066091;28;20332;-67
2023/08/19 06:53:17;;;;;;;17.65;13.43;;;21.50;99.90;;;;;;5064208;28;20029;-66
2023/08/19 06:55:50;;;;;;;18.45;15.25;;;21.50;99.90;;;;;;5065879;28;20527;-68
2023/08/19 06:58:25;;;;;;;20.77;15.37;;;21.50;99.90;;;;;;5049441;28;20044;-65
2023/08/19 07:01:02;;;;;;;19.23;14.43;;;21.50;99.90;;;;;;5053478;28;20402;-66
2023/08/19 07:03:30;;;;;;;20.70;13.80;;;21.50;99.90;;;;;;5048445;28;20052;-66
2023/08/19 07:05:58;;;;;;;20.02;14.13;;;21.50;99.90;;;;;;5047293;28;20045;-66
2023/08/19 07:08:26;;;;;;;18.27;14.68;;;21.50;99.90;;;;;;5045775;28;20072;-67
2023/08/19 07:10:52;;;;;;;18.67;14.43;;;21.50;99.90;;;;;;5045814;28;20045;-67
2023/08/19 07:13:18;;;;;;;23.90;14.90;;;21.50;99.90;;;;;;5058456;28;20047;-66
2023/08/19 07:15:51;;;;;;;18.52;14.93;;;21.50;99.90;;;;;;5065399;28;20212;-66
2023/08/19 07:18:20;;;;;;;19.45;14.70;;;21.50;99.90;;;;;;5048183;28;20044;-68
2023/08/19 07:20:51;;;;;;;21.05;15.40;;;21.50;99.90;;;;;;5048421;28;20653;-66
2023/08/19 07:23:18;;;;;;;21.50;14.82;;;21.50;99.90;;;;;;5053094;28;20041;-66
2023/08/19 07:25:43;;;;;;;19.27;14.90;;;21.50;99.90;;;;;;5045628;28;20294;-65
2023/08/19 07:28:13;;;;;;;19.83;14.57;;;21.60;99.90;;;;;;5062219;28;20058;-66
2023/08/19 07:30:39;;;;;;;19.58;14.93;;;21.60;99.90;;;;;;5048657;28;20067;-68
2023/08/19 07:33:05;;;;;;;19.23;15.45;;;21.60;99.90;;;;;;5046877;28;20041;-65
2023/08/19 07:35:31;;;;;;;22.95;15.23;;;21.60;99.90;;;;;;5045363;28;20075;-65
2023/08/19 07:37:56;;;;;;;23.52;14.32;;;21.70;99.90;;;;;;5051594;28;20494;-67
2023/08/19 07:40:22;;;;;;;18.25;13.85;;;21.70;99.90;;;;;;5048574;28;20143;-67
2023/08/19 07:42:47;;;;;;;19.42;13.93;;;21.80;99.90;;;;;;5064648;28;20049;-67
2023/08/19 07:45:13;;;;;;;20.75;14.20;;;21.80;99.90;;;;;;5038813;28;20486;-65
2023/08/19 07:47:39;;;;;;;18.15;14.23;;;21.90;99.90;;;;;;5028835;28;20078;-66
2023/08/19 07:50:05;;;;;;;18.25;15.05;;;21.90;99.90;;;;;;5058431;28;20040;-65
2023/08/19 07:52:30;;;;;;;23.30;14.77;;;21.90;99.90;;;;;;5079538;28;20040;-65
2023/08/19 07:54:56;;;;;;;17.73;13.95;;;22.00;99.90;;;;;;5064825;28;20534;-66
2023/08/19 07:57:22;;;;;;;18.60;13.25;;;22.00;99.90;;;;;;5064652;28;20044;-65
2023/08/19 07:59:48;;;;;;;19.77;13.63;;;22.10;99.90;;;;;;5057934;28;20037;-65
2023/08/19 08:02:14;;;;;;;17.52;12.25;;;22.10;99.90;;;;;;5046335;28;20138;-67
2023/08/19 08:04:40;;;;;;;15.30;12.60;;;22.20;99.90;;;;;;5038248;28;20159;-65
2023/08/19 08:07:07;;;;;;;16.77;12.52;;;22.20;99.90;;;;;;5046804;28;20630;-66
2023/08/19 08:09:32;;;;;;;15.98;12.18;;;22.20;99.90;;;;;;5058504;28;20053;-66
2023/08/19 08:11:58;;;;;;;19.85;12.57;;;22.30;99.90;;;;;;5026251;28;20092;-65
2023/08/19 08:14:24;;;;;;;12.90;10.85;;;22.30;99.90;;;;;;5031002;28;20045;-64
2023/08/19 08:16:50;;;;;;;13.60;10.13;;;22.30;99.90;;;;;;5044449;28;20045;-67
2023/08/19 08:19:16;;;;;;;13.43;10.68;;;22.30;99.90;;;;;;5050369;28;20403;-63
2023/08/19 08:21:42;;;;;;;16.33;9.77;;;22.40;99.90;;;;;;5044587;28;20040;-65
2023/08/19 08:24:08;;;;;;;13.63;10.20;;;22.40;99.90;;;;;;5060514;28;20127;-67
2023/08/19 08:26:33;;;;;;;14.77;10.20;;;22.40;99.90;;;;;;5061953;28;20048;-66
2023/08/19 08:28:59;;;;;;;13.50;9.05;;;22.50;99.90;;;;;;5065743;28;20051;-67
2023/08/19 08:31:24;;;;;;;16.63;9.73;;;22.60;99.90;;;;;;5050626;28;20080;-63
2023/08/19 08:33:50;;;;;;;16.00;9.90;;;22.60;99.90;;;;;;5068660;28;20704;-66
2023/08/19 08:36:18;;;;;;;14.77;9.38;;;22.70;99.90;;;;;;5044159;28;20052;-67
2023/08/19 08:38:43;;;;;;;11.10;9.05;;;22.70;99.90;;;;;;5043653;28;20128;-65
2023/08/19 08:41:10;;;;;;;14.50;9.15;;;22.80;99.90;;;;;;5044175;28;20128;-66
2023/08/19 08:43:38;;;;;;;15.70;9.48;;;22.80;99.90;;;;;;5054336;28;20041;-64
2023/08/19 08:46:04;;;;;;;13.20;9.15;;;22.90;99.90;;;;;;5063940;28;20040;-65
2023/08/19 08:48:32;;;;;;;13.13;8.65;;;22.90;99.90;;;;;;5060109;28;20248;-65
2023/08/19 08:51:02;;;;;;;14.50;9.77;;;22.90;99.90;;;;;;5043918;28;20120;-68
2023/08/19 08:53:29;;;;;;;12.88;9.40;;;23.00;99.90;;;;;;5054534;28;20063;-65
2023/08/19 08:55:55;;;;;;;12.75;8.75;;;23.00;99.90;;;;;;5063442;28;20042;-65
2023/08/19 08:58:21;;;;;;;14.27;9.13;;;23.10;99.90;;;;;;5058519;28;20432;-68
2023/08/19 09:00:48;;;;;;;14.52;8.75;;;23.20;99.90;;;;;;5043993;28;20033;-64
2023/08/19 09:03:18;;;;;;;12.60;8.15;;;23.30;99.90;;;;;;5043979;28;20141;-65
2023/08/19 09:05:45;;;;;;;10.48;7.80;;;23.40;99.90;;;;;;5062253;28;20105;-63
2023/08/19 09:08:15;;;;;;;11.93;7.40;;;23.60;99.90;;;;;;5063595;28;20036;-64
2023/08/19 09:10:43;;;;;;;14.88;7.65;;;23.60;99.90;;;;;;5065059;28;20109;-64
2023/08/19 09:13:14;;;;;;;12.73;7.65;;;23.70;99.90;;;;;;5060960;28;20033;-63
2023/08/19 09:15:39;;;;;;;14.68;8.13;;;23.90;99.90;;;;;;5043735;28;20386;-65
2023/08/19 09:18:06;;;;;;;16.40;7.63;;;24.00;99.90;;;;;;5052365;28;20052;-65
2023/08/19 09:20:33;;;;;;;12.45;7.13;;;24.20;99.90;;;;;;5062070;28;20032;-65
2023/08/19 09:23:09;;;;;;;10.40;7.20;;;24.20;99.90;;;;;;5062123;28;20063;-65
2023/08/19 09:25:35;;;;;;;10.38;7.40;;;24.30;99.90;;;;;;5063523;28;20062;-65
2023/08/19 09:28:00;;;;;;;11.57;7.15;;;24.30;99.90;;;;;;5051801;28;20127;-65
2023/08/19 09:30:35;;;;;;;14.60;7.40;;;24.40;99.90;;;;;;5044024;28;20136;-65
2023/08/19 09:33:02;;;;;;;11.98;7.18;;;24.50;99.90;;;;;;5056946;28;20731;-65
2023/08/19 09:35:36;;;;;;;11.20;6.80;;;24.50;99.90;;;;;;5074143;28;20416;-65
2023/08/19 09:38:02;;;;;;;10.57;6.88;;;24.50;99.90;;;;;;5050656;28;20438;-65
2023/08/19 09:40:28;;;;;;;13.88;7.45;;;24.50;99.90;;;;;;5067337;28;20047;-65
2023/08/19 09:42:58;;;;;;;11.93;7.20;;;24.60;99.90;;;;;;5068600;28;20044;-66
2023/08/19 09:45:25;;;;;;;9.82;7.55;;;24.60;99.90;;;;;;5065523;28;20470;-65
2023/08/19 09:47:52;;;;;;;14.05;7.38;;;24.60;99.90;;;;;;5067323;28;20049;-65
2023/08/19 09:50:22;;;;;;;11.82;7.10;;;24.50;99.90;;;;;;5050574;28;20055;-66
2023/08/19 09:52:55;;;;;;;14.20;6.97;;;24.50;99.90;;;;;;5053289;28;20047;-65
2023/08/19 09:55:29;;;;;;;11.52;6.88;;;24.60;99.90;;;;;;5067164;28;20037;-66
2023/08/19 09:57:56;;;;;;;13.55;7.00;;;24.60;99.90;;;;;;5050358;28;20048;-63
2023/08/19 10:00:22;;;;;;;11.35;6.55;;;24.60;99.90;;;;;;5068667;28;20396;-64
2023/08/19 10:02:48;;;;;;;11.38;6.68;;;24.70;99.90;;;;;;5055653;28;20055;-66
2023/08/19 10:05:16;;;;;;;11.63;6.50;;;24.70;99.90;;;;;;5062859;28;20044;-64
2023/08/19 10:07:47;;;;;;;8.88;6.10;;;24.70;99.90;;;;;;5067049;28;20091;-65
2023/08/19 10:10:13;;;;;;;9.00;6.10;;;24.80;99.90;;;;;;5068144;28;20040;-65
2023/08/19 10:12:40;;;;;;;8.55;5.75;;;24.90;99.90;;;;;;5059279;28;20045;-65
2023/08/19 10:15:13;;;;;;;13.70;6.40;;;24.90;99.90;;;;;;5046738;28;20045;-65
2023/08/19 10:17:43;;;;;;;9.50;5.97;;;25.00;99.90;;;;;;5047012;28;20131;-64
2023/08/19 10:20:13;;;;;;;10.80;5.95;;;25.00;99.90;;;;;;5060245;28;20037;-64
2023/08/19 10:22:44;;;;;;;10.70;5.93;;;25.00;99.90;;;;;;5061236;28;20098;-65
2023/08/19 10:25:11;;;;;;;12.52;6.15;;;25.00;99.90;;;;;;5046584;28;20052;-65
2023/08/19 10:27:37;;;;;;;12.70;6.43;;;24.90;99.90;;;;;;5047934;28;20043;-64
2023/08/19 10:30:31;;;;;;;8.75;5.60;;;24.90;99.90;;;;;;5080110;28;20048;-65
2023/08/19 10:33:24;;;;;;;14.93;7.07;;;24.80;99.90;;;;;;5035069;28;20087;-64
2023/08/19 10:36:04;;;;;;;14.10;6.72;;;24.70;99.90;;;;;;5044185;28;20053;-67
2023/08/19 10:38:55;;;;;;;10.80;7.03;;;24.60;99.90;;;;;;5056951;28;20097;-66
2023/08/19 10:41:36;;;;;;;13.73;8.20;;;24.40;99.90;;;;;;5066494;28;20089;-67
2023/08/19 10:44:03;;;;;;;13.30;8.55;;;24.30;99.90;;;;;;5066256;28;20090;-67
2023/08/19 10:46:50;;;;;;;17.95;9.07;;;24.10;99.90;;;;;;5048777;28;20045;-66
2023/08/19 10:49:21;;;;;;;19.30;9.82;;;24.00;99.90;;;;;;5052156;28;20079;-63
2023/08/19 10:52:06;;;;;;;18.70;10.32;;;24.00;99.90;;;;;;5065659;28;20040;-64
2023/08/19 10:54:38;;;;;;;17.27;9.75;;;24.00;99.90;;;;;;5027696;28;20503;-64
2023/08/19 10:57:27;;;;;;;16.35;9.73;;;23.90;99.90;;;;;;5026190;28;20045;-66
2023/08/19 11:00:00;;;;;;;16.85;10.02;;;23.90;99.90;;;;;;5029855;28;20045;-65
2023/08/19 11:02:27;;;;;;;13.07;9.77;;;23.90;99.90;;;;;;5066042;28;20063;-64
2023/08/19 11:04:54;;;;;;;14.60;9.48;;;23.90;99.90;;;;;;5055135;28;20190;-63
2023/08/19 11:07:20;;;;;;;15.82;9.60;;;23.90;99.90;;;;;;5047407;28;20112;-63
2023/08/19 11:09:48;;;;;;;12.90;9.25;;;23.90;99.90;;;;;;5054355;28;20593;-66
2023/08/19 11:12:22;;;;;;;13.43;9.18;;;23.90;99.90;;;;;;5054832;28;20037;-64
2023/08/19 11:14:49;;;;;;;15.52;10.52;;;23.90;99.90;;;;;;5045778;28;20499;-65
2023/08/19 11:17:16;;;;;;;19.70;10.55;;;23.80;99.90;;;;;;5047170;28;20421;-66
2023/08/19 11:19:42;;;;;;;13.40;9.90;;;23.80;99.90;;;;;;5055306;28;20632;-64
2023/08/19 11:22:13;;;;;;;14.73;10.18;;;23.80;99.90;;;;;;5063692;28;20388;-65
2023/08/19 11:24:38;;;;;;;17.92;11.38;;;23.80;99.90;;;;;;5047115;28;20508;-65
2023/08/19 11:27:04;;;;;;;15.70;10.68;;;23.80;99.90;;;;;;5028515;28;20041;-66
2023/08/19 11:29:30;;;;;;;16.00;10.48;;;23.80;99.90;;;;;;5045721;28;20491;-66
2023/08/19 11:31:56;;;;;;;13.13;10.18;;;23.90;99.90;;;;;;5028799;28;20480;-65
2023/08/19 11:34:26;;;;;;;17.00;10.05;;;23.90;99.90;;;;;;5043876;28;20518;-67
2023/08/19 11:36:51;;;;;;;14.00;10.60;;;24.00;99.90;;;;;;5065443;28;20059;-66
2023/08/19 11:39:17;;;;;;;15.18;9.90;;;24.30;99.90;;;;;;5066852;28;20067;-67
2023/08/19 11:41:45;;;;;;;17.40;9.68;;;24.50;99.90;;;;;;5057027;28;20179;-65
2023/08/19 11:44:11;;;;;;;16.83;10.30;;;24.70;99.90;;;;;;5046628;28;20049;-66
2023/08/19 11:46:37;;;;;;;15.75;10.25;;;24.80;99.90;;;;;;5057751;28;20050;-67
2023/08/19 11:49:08;;;;;;;15.77;10.27;;;24.90;99.90;;;;;;5061327;28;20045;-66
2023/08/19 11:51:40;;;;;;;16.65;10.60;;;24.90;99.90;;;;;;5060420;28;20036;-65
2023/08/19 11:54:08;;;;;;;23.00;11.40;;;24.90;99.90;;;;;;5082142;28;20522;-66
2023/08/19 11:56:54;;;;;;;17.50;11.23;;;25.00;99.90;;;;;;5060635;28;20051;-68
2023/08/19 11:59:34;;;;;;;18.90;11.80;;;25.00;99.90;;;;;;5065191;28;20037;-66
2023/08/19 12:02:04;;;;;;;17.08;11.93;;;25.10;99.90;;;;;;5048367;28;20059;-64
2023/08/19 12:04:32;;;;;;;18.08;13.02;;;25.00;99.90;;;;;;5060930;28;20537;-67
2023/08/19 12:06:57;;;;;;;19.98;13.57;;;25.10;99.90;;;;;;5064456;28;20056;-66
2023/08/19 12:09:35;;;;;;;22.38;13.20;;;25.10;99.90;;;;;;5098557;28;20040;-66
2023/08/19 12:12:09;;;;;;;19.67;14.10;;;25.20;99.90;;;;;;5054432;28;20049;-66
2023/08/19 12:14:38;;;;;;;18.23;14.18;;;25.20;99.90;;;;;;5028328;28;20479;-65
2023/08/19 12:17:07;;;;;;;19.55;14.18;;;25.30;99.90;;;;;;5028158;28;20085;-68
2023/08/19 12:19:32;;;;;;;19.77;15.70;;;25.30;99.90;;;;;;5041241;28;20040;-67
2023/08/19 12:21:58;;;;;;;19.17;16.23;;;25.40;99.90;;;;;;5064161;28;20043;-63
2023/08/19 12:24:24;;;;;;;21.52;16.48;;;25.40;99.90;;;;;;5066038;28;20504;-68
2023/08/19 12:26:49;;;;;;;22.05;17.08;;;25.50;99.90;;;;;;5055997;28;20094;-65
2023/08/19 12:29:15;;;;;;;25.65;19.35;;;25.60;99.90;;;;;;5044379;28;20049;-64
2023/08/19 12:31:41;;;;;;;21.95;17.88;;;25.60;99.90;;;;;;5045749;28;20585;-67